Time;durP1;ratioP1;P1;durP2;ratioP2;P2;SDS_P1;SDS_P2;PMS_P1;PMS_P2;Temp;Humidity;BMP_temperature;BMP_pressure;BME280_temperature;BME280_humidity;BME280_pressure;Samples;Min_cycle;Max_cycle;Signal;HPM_P1;HPM_P2
2022/03/18 00:01:49;;;;;;;13.63;6.20;;;;;;;;;;5024900;28;20037;-81
2022/03/18 00:04:15;;;;;;;15.63;5.68;;;;;;;;;;5027524;28;20072;-81
2022/03/18 00:06:40;;;;;;;14.05;5.38;;;;;;;;;;5024936;28;20116;-82
2022/03/18 00:09:06;;;;;;;14.18;5.90;;;;;;;;;;5024827;28;20032;-82
2022/03/18 00:11:31;;;;;;;12.23;5.15;;;;;;;;;;5018331;28;20762;-82
2022/03/18 00:13:58;;;;;;;14.07;5.47;;;;;;;;;;5023547;28;20151;-82
2022/03/18 00:16:24;;;;;;;17.55;5.13;;;;;;;;;;5002135;28;20514;-82
2022/03/18 00:18:49;;;;;;;15.18;5.72;;;;;;;;;;5020570;28;20041;-81
2022/03/18 00:21:16;;;;;;;13.10;4.93;;;;;;;;;;5008429;28;20033;-81
2022/03/18 00:23:41;;;;;;;13.00;5.13;;;;;;;;;;5021957;28;20057;-82
2022/03/18 00:26:06;;;;;;;13.50;5.03;;;;;;;;;;4997943;28;20445;-82
2022/03/18 00:28:32;;;;;;;11.35;5.10;;;;;;;;;;5018974;28;20030;-82
2022/03/18 00:30:57;;;;;;;13.88;5.68;;;;;;;;;;5026264;28;20029;-82
2022/03/18 00:33:23;;;;;;;15.15;5.43;;;;;;;;;;5003809;28;20148;-82
2022/03/18 00:35:48;;;;;;;11.60;4.97;;;;;;;;;;4987550;28;20510;-82
2022/03/18 00:38:13;;;;;;;13.98;5.50;;;;;;;;;;5016185;28;20393;-83
2022/03/18 00:40:39;;;;;;;12.13;4.85;;;;;;;;;;5021247;28;20159;-82
2022/03/18 00:43:05;;;;;;;13.55;5.32;;;;;;;;;;5027406;28;20120;-82
2022/03/18 00:45:30;;;;;;;13.45;5.30;;;;;;;;;;4991610;28;20037;-82
2022/03/18 00:53:25;;;;;;;12.77;5.00;;;;;;;;;;5020517;28;20033;-82
2022/03/18 00:55:50;;;;;;;14.00;5.05;;;;;;;;;;5015520;28;20497;-82
2022/03/18 00:58:15;;;;;;;13.38;4.90;;;;;;;;;;5005415;28;20044;-82
2022/03/18 01:00:41;;;;;;;11.35;4.88;;;;;;;;;;5007995;28;20038;-82
2022/03/18 01:03:06;;;;;;;11.63;4.65;;;;;;;;;;5005392;28;20037;-82
2022/03/18 01:05:32;;;;;;;12.38;5.30;;;;;;;;;;4999207;28;20416;-81
2022/03/18 01:07:58;;;;;;;12.90;5.22;;;;;;;;;;5016928;28;20121;-81
2022/03/18 01:10:23;;;;;;;15.02;5.22;;;;;;;;;;4994417;28;20490;-82
2022/03/18 01:12:48;;;;;;;9.65;4.68;;;;;;;;;;5010790;28;20030;-82
2022/03/18 01:15:14;;;;;;;12.15;5.13;;;;;;;;;;5019721;28;20021;-82
2022/03/18 01:17:39;;;;;;;12.13;5.30;;;;;;;;;;5006582;28;20048;-82
2022/03/18 01:20:05;;;;;;;15.30;5.18;;;;;;;;;;5012698;28;20045;-82
2022/03/18 01:22:30;;;;;;;11.43;4.97;;;;;;;;;;5006660;28;20038;-82
2022/03/18 01:24:56;;;;;;;13.98;4.88;;;;;;;;;;4986277;28;20485;-82
2022/03/18 01:27:21;;;;;;;18.33;5.40;;;;;;;;;;5013266;28;20034;-82
2022/03/18 01:29:46;;;;;;;11.52;4.53;;;;;;;;;;5009767;28;20041;-82
2022/03/18 01:32:12;;;;;;;14.07;5.22;;;;;;;;;;5005061;28;20455;-82
2022/03/18 01:34:37;;;;;;;13.70;5.55;;;;;;;;;;5001225;28;20045;-82
2022/03/18 01:37:03;;;;;;;13.65;4.75;;;;;;;;;;5011517;28;20117;-82
2022/03/18 01:39:28;;;;;;;10.82;4.88;;;;;;;;;;4996807;28;20057;-82
2022/03/18 01:41:53;;;;;;;11.80;5.10;;;;;;;;;;4996805;28;20046;-83
2022/03/18 01:44:19;;;;;;;13.93;4.70;;;;;;;;;;5017957;28;20179;-82
2022/03/18 01:46:44;;;;;;;13.65;5.05;;;;;;;;;;5006883;28;20054;-82
2022/03/18 01:49:10;;;;;;;14.20;4.88;;;;;;;;;;5023241;28;20048;-82
2022/03/18 01:51:35;;;;;;;13.95;4.57;;;;;;;;;;5001909;28;20179;-82
2022/03/18 01:56:45;;;;;;;11.05;4.63;;;;;;;;;;5020359;28;20048;-82
2022/03/18 01:59:14;;;;;;;11.75;4.88;;;;;;;;;;5005273;28;20042;-83
2022/03/18 02:01:39;;;;;;;14.55;4.88;;;;;;;;;;5021133;28;20542;-82
2022/03/18 02:04:07;;;;;;;12.57;4.68;;;;;;;;;;5006364;28;20041;-83
2022/03/18 02:06:33;;;;;;;12.73;4.30;;;;;;;;;;5001863;28;20088;-83
2022/03/18 02:08:58;;;;;;;12.40;4.18;;;;;;;;;;5019610;28;20053;-83
2022/03/18 02:11:25;;;;;;;13.32;4.22;;;;;;;;;;5024608;28;20038;-82
2022/03/18 02:13:52;;;;;;;11.38;4.32;;;;;;;;;;5003106;28;20076;-83
2022/03/18 02:16:17;;;;;;;12.13;3.58;;;;;;;;;;5021332;28;20036;-83
2022/03/18 02:18:43;;;;;;;9.30;3.75;;;;;;;;;;5002366;28;20037;-82
2022/03/18 02:21:08;;;;;;;10.63;3.95;;;;;;;;;;5002830;28;20029;-82
2022/03/18 02:23:34;;;;;;;11.38;3.85;;;;;;;;;;5022346;28;20030;-82
2022/03/18 02:26:00;;;;;;;13.50;3.70;;;;;;;;;;5009839;28;20163;-82
2022/03/18 02:28:25;;;;;;;15.68;4.30;;;;;;;;;;5018796;28;20449;-82
2022/03/18 02:30:50;;;;;;;13.05;3.97;;;;;;;;;;5024130;28;20037;-83
2022/03/18 02:33:17;;;;;;;14.05;3.50;;;;;;;;;;5011619;28;20037;-82
2022/03/18 02:35:42;;;;;;;12.18;3.50;;;;;;;;;;5024954;28;20528;-82
2022/03/18 02:38:08;;;;;;;14.68;3.70;;;;;;;;;;5014502;28;20037;-82
2022/03/18 02:40:33;;;;;;;11.38;3.45;;;;;;;;;;5018434;28;20041;-82
2022/03/18 02:42:58;;;;;;;9.77;3.03;;;;;;;;;;5020087;28;20033;-82
2022/03/18 02:45:24;;;;;;;13.75;3.42;;;;;;;;;;5006373;28;20132;-83
2022/03/18 02:47:49;;;;;;;13.50;3.97;;;;;;;;;;5022380;28;20484;-83
2022/03/18 02:50:15;;;;;;;11.27;3.47;;;;;;;;;;5003373;28;20040;-81
2022/03/18 02:52:41;;;;;;;12.05;3.30;;;;;;;;;;5005926;28;20113;-81
2022/03/18 02:55:07;;;;;;;11.68;3.28;;;;;;;;;;5017418;28;20396;-81
2022/03/18 02:57:32;;;;;;;13.82;3.30;;;;;;;;;;5002756;28;20033;-82
2022/03/18 02:59:59;;;;;;;13.45;3.60;;;;;;;;;;5021413;28;20117;-81
2022/03/18 03:02:25;;;;;;;11.85;3.25;;;;;;;;;;5008065;28;20041;-81
2022/03/18 03:10:18;;;;;;;14.95;3.70;;;;;;;;;;5015582;28;20060;-81
2022/03/18 03:12:43;;;;;;;12.63;3.20;;;;;;;;;;5023047;28;20042;-81
2022/03/18 03:15:08;;;;;;;12.02;3.20;;;;;;;;;;5022143;28;20034;-81
2022/03/18 03:17:34;;;;;;;8.43;3.00;;;;;;;;;;5004771;28;20374;-82
2022/03/18 03:19:59;;;;;;;11.82;3.03;;;;;;;;;;5007749;28;20037;-81
2022/03/18 03:22:24;;;;;;;12.05;2.78;;;;;;;;;;5002816;28;20488;-81
2022/03/18 03:24:50;;;;;;;14.68;3.33;;;;;;;;;;5013441;28;20037;-81
2022/03/18 03:27:15;;;;;;;14.05;3.25;;;;;;;;;;5027574;28;20041;-81
2022/03/18 03:29:40;;;;;;;13.50;3.47;;;;;;;;;;5020533;28;20049;-82
2022/03/18 03:32:06;;;;;;;13.43;3.17;;;;;;;;;;5023303;28;20033;-82
2022/03/18 03:34:32;;;;;;;12.48;3.10;;;;;;;;;;5024762;28;20116;-81
2022/03/18 03:36:58;;;;;;;12.50;3.15;;;;;;;;;;5017791;28;20041;-81
2022/03/18 03:39:23;;;;;;;13.40;3.15;;;;;;;;;;5001635;28;20034;-82
2022/03/18 03:41:51;;;;;;;12.48;3.00;;;;;;;;;;5004174;28;20045;-82
2022/03/18 03:44:16;;;;;;;;;;;;;;;;;;5000654;28;20037;-82
2022/03/18 03:46:42;;;;;;;11.40;3.20;;;;;;;;;;5021699;28;20397;-81
2022/03/18 03:49:07;;;;;;;15.30;3.53;;;;;;;;;;5007490;28;20037;-81
2022/03/18 03:51:34;;;;;;;11.60;3.03;;;;;;;;;;5003227;28;20501;-82
2022/03/18 03:53:59;;;;;;;10.43;2.88;;;;;;;;;;5006336;28;20414;-82
2022/03/18 03:56:24;;;;;;;13.90;3.20;;;;;;;;;;5014630;28;20040;-82
2022/03/18 03:58:50;;;;;;;15.07;3.40;;;;;;;;;;5006846;28;20567;-82
2022/03/18 04:01:15;;;;;;;11.35;3.20;;;;;;;;;;5002513;28;20029;-81
2022/03/18 04:03:40;;;;;;;12.98;3.55;;;;;;;;;;4983772;28;20042;-82
2022/03/18 04:06:05;;;;;;;12.98;3.15;;;;;;;;;;4998565;28;20046;-81
2022/03/18 04:08:31;;;;;;;14.70;3.03;;;;;;;;;;5006431;28;20040;-82
2022/03/18 04:10:56;;;;;;;11.85;3.17;;;;;;;;;;5002918;28;20112;-82
2022/03/18 04:13:21;;;;;;;10.85;3.25;;;;;;;;;;5012763;28;20496;-83
2022/03/18 04:15:48;;;;;;;9.63;2.78;;;;;;;;;;5018753;28;20041;-82
2022/03/18 04:18:13;;;;;;;18.75;3.72;;;;;;;;;;5004008;28;20042;-82
2022/03/18 04:20:41;;;;;;;16.83;3.17;;;;;;;;;;5012761;28;20397;-82
2022/03/18 04:23:07;;;;;;;11.20;2.85;;;;;;;;;;5023147;28;20037;-81
2022/03/18 04:25:32;;;;;;;16.50;3.33;;;;;;;;;;5012883;28;20124;-82
2022/03/18 04:27:58;;;;;;;17.60;2.95;;;;;;;;;;5010136;28;20528;-82
2022/03/18 04:30:24;;;;;;;13.60;3.10;;;;;;;;;;5023676;28;20112;-82
2022/03/18 04:32:49;;;;;;;14.43;3.15;;;;;;;;;;5016334;28;20108;-82
2022/03/18 04:35:14;;;;;;;14.63;3.13;;;;;;;;;;5008078;28;20030;-82
2022/03/18 04:37:41;;;;;;;15.13;3.38;;;;;;;;;;4996480;28;20057;-83
2022/03/18 04:40:11;;;;;;;12.20;2.97;;;;;;;;;;5007530;28;20045;-80
2022/03/18 04:42:36;;;;;;;15.00;3.08;;;;;;;;;;4977938;28;20125;-79
2022/03/18 04:45:02;;;;;;;12.63;2.65;;;;;;;;;;5010047;28;20091;-80
2022/03/18 04:47:29;;;;;;;12.38;3.20;;;;;;;;;;5000197;28;20046;-80
2022/03/18 04:49:54;;;;;;;12.82;2.90;;;;;;;;;;5022808;28;20103;-80
2022/03/18 04:52:20;;;;;;;15.60;3.13;;;;;;;;;;5013444;28;20041;-80
2022/03/18 04:54:45;;;;;;;12.90;2.90;;;;;;;;;;5008166;28;20045;-79
2022/03/18 04:57:18;;;;;;;12.15;2.60;;;;;;;;;;5016213;28;20034;-79
2022/03/18 04:59:45;;;;;;;11.60;2.70;;;;;;;;;;5002794;28;20141;-79
2022/03/18 05:02:11;;;;;;;11.65;3.05;;;;;;;;;;4991514;28;20392;-80
2022/03/18 05:04:37;;;;;;;14.93;2.92;;;;;;;;;;5010860;28;20050;-80
2022/03/18 05:07:03;;;;;;;12.00;2.60;;;;;;;;;;4985771;28;20096;-80
2022/03/18 05:09:29;;;;;;;15.82;3.20;;;;;;;;;;5005754;28;20064;-80
2022/03/18 05:11:57;;;;;;;14.05;2.63;;;;;;;;;;5011539;28;20026;-79
2022/03/18 05:14:22;;;;;;;12.15;2.60;;;;;;;;;;5006811;28;20040;-80
2022/03/18 05:16:49;;;;;;;13.00;2.72;;;;;;;;;;4999351;28;20038;-80
2022/03/18 05:19:14;;;;;;;10.93;2.83;;;;;;;;;;5017646;28;20044;-79
2022/03/18 05:21:40;;;;;;;15.40;2.90;;;;;;;;;;5006503;28;20378;-81
2022/03/18 05:24:06;;;;;;;13.88;2.95;;;;;;;;;;5014964;28;20455;-81
2022/03/18 05:26:36;;;;;;;13.93;2.75;;;;;;;;;;4994357;28;20041;-81
2022/03/18 05:29:02;;;;;;;14.68;2.40;;;;;;;;;;5003714;28;20042;-80
2022/03/18 05:31:31;;;;;;;10.82;2.55;;;;;;;;;;5009804;28;20037;-80
2022/03/18 05:33:56;;;;;;;12.43;2.47;;;;;;;;;;5009060;28;20041;-82
2022/03/18 05:36:22;;;;;;;12.15;3.10;;;;;;;;;;5008092;28;20069;-81
2022/03/18 05:38:47;;;;;;;15.63;2.88;;;;;;;;;;4987380;28;20141;-81
2022/03/18 05:41:13;;;;;;;14.02;3.03;;;;;;;;;;4992681;28;20026;-80
2022/03/18 05:43:39;;;;;;;18.85;3.15;;;;;;;;;;5008576;28;20125;-80
2022/03/18 05:46:04;;;;;;;16.15;2.75;;;;;;;;;;4996824;28;20497;-80
2022/03/18 05:48:29;;;;;;;13.32;3.05;;;;;;;;;;4992692;28;20038;-80
2022/03/18 05:50:55;;;;;;;11.13;2.50;;;;;;;;;;5015157;28;20034;-81
2022/03/18 05:53:20;;;;;;;14.77;3.13;;;;;;;;;;4987374;28;20094;-81
2022/03/18 05:58:30;;;;;;;11.52;2.47;;;;;;;;;;5010212;28;20053;-80
2022/03/18 06:00:55;;;;;;;11.82;2.83;;;;;;;;;;5008695;28;20424;-80
2022/03/18 06:03:21;;;;;;;16.08;2.72;;;;;;;;;;5020130;28;20493;-80
2022/03/18 06:05:49;;;;;;;14.73;3.03;;;;;;;;;;5012911;28;20061;-80
2022/03/18 06:13:44;;;;;;;14.50;2.63;;;;;;;;;;4993548;28;20030;-80
2022/03/18 06:16:09;;;;;;;14.38;2.63;;;;;;;;;;5005940;28;20033;-81
2022/03/18 06:18:34;;;;;;;19.75;2.97;;;;;;;;;;5013280;28;20034;-81
2022/03/18 06:21:00;;;;;;;14.93;2.67;;;;;;;;;;5016253;28;20490;-83
2022/03/18 06:23:26;;;;;;;16.77;2.83;;;;;;;;;;5000551;28;20046;-82
2022/03/18 06:25:51;;;;;;;15.25;3.10;;;;;;;;;;5011950;28;20042;-81
2022/03/18 06:28:17;;;;;;;15.35;2.72;;;;;;;;;;5012235;28;20077;-81
2022/03/18 06:30:42;;;;;;;11.70;2.70;;;;;;;;;;5020507;28;20109;-81
2022/03/18 06:33:08;;;;;;;14.25;2.60;;;;;;;;;;5008034;28;20048;-81
2022/03/18 06:35:33;;;;;;;14.60;2.88;;;;;;;;;;5011956;28;20042;-80
2022/03/18 06:37:59;;;;;;;11.93;2.47;;;;;;;;;;5006807;28;20117;-80
2022/03/18 06:40:24;;;;;;;17.77;3.58;;;;;;;;;;5017349;28;20041;-80
2022/03/18 06:42:49;;;;;;;15.68;3.45;;;;;;;;;;5011252;28;20052;-80
2022/03/18 06:45:15;;;;;;;20.02;3.15;;;;;;;;;;5025608;28;20592;-80
2022/03/18 06:47:40;;;;;;;13.63;2.78;;;;;;;;;;4987082;28;20074;-81
2022/03/18 06:50:06;;;;;;;12.10;2.78;;;;;;;;;;5007964;28;20121;-81
2022/03/18 06:52:31;;;;;;;14.63;3.35;;;;;;;;;;4998780;28;20034;-80
2022/03/18 06:54:56;;;;;;;15.63;2.67;;;;;;;;;;4980747;28;20042;-81
2022/03/18 06:57:22;;;;;;;11.27;3.10;;;;;;;;;;4978976;28;20057;-82
2022/03/18 06:59:47;;;;;;;16.02;3.65;;;;;;;;;;5019247;28;20034;-81
2022/03/18 07:02:16;;;;;;;14.80;2.60;;;;;;;;;;5018724;28;20034;-82
2022/03/18 07:04:41;;;;;;;14.60;2.90;;;;;;;;;;5016589;28;20042;-81
2022/03/18 07:07:06;;;;;;;14.27;2.50;;;;;;;;;;5015601;28;20099;-82
2022/03/18 07:09:32;;;;;;;17.98;2.85;;;;;;;;;;5007741;28;20168;-81
2022/03/18 07:11:57;;;;;;;14.75;2.83;;;;;;;;;;5017610;28;20045;-80
2022/03/18 07:14:22;;;;;;;18.70;3.25;;;;;;;;;;5017828;28;20033;-81
2022/03/18 07:19:33;;;;;;;14.77;3.03;;;;;;;;;;5018715;28;20044;-80
2022/03/18 07:21:58;;;;;;;15.68;4.22;;;;;;;;;;5018739;28;20081;-81
2022/03/18 07:24:23;;;;;;;16.92;2.63;;;;;;;;;;5015939;28;20413;-80
2022/03/18 07:26:49;;;;;;;14.45;3.45;;;;;;;;;;5016323;28;20064;-80
2022/03/18 07:29:14;;;;;;;17.88;2.85;;;;;;;;;;5032922;28;20037;-81
2022/03/18 07:31:39;;;;;;;15.05;2.72;;;;;;;;;;5012587;28;20042;-81
2022/03/18 07:34:04;;;;;;;12.40;3.40;;;;;;;;;;4999488;28;20504;-80
2022/03/18 07:36:30;;;;;;;11.32;2.47;;;;;;;;;;4991082;28;20034;-80
2022/03/18 07:38:55;;;;;;;13.15;2.92;;;;;;;;;;4997011;28;20492;-81
2022/03/18 07:41:20;;;;;;;17.50;3.10;;;;;;;;;;5009737;28;20374;-81
2022/03/18 07:43:46;;;;;;;14.13;3.00;;;;;;;;;;5006429;28;20040;-80
2022/03/18 07:46:11;;;;;;;20.75;3.45;;;;;;;;;;5019725;28;20052;-81
2022/03/18 07:48:40;;;;;;;14.93;3.13;;;;;;;;;;5018720;28;20148;-82
2022/03/18 07:51:05;;;;;;;22.98;4.28;;;;;;;;;;5032616;28;20397;-82
2022/03/18 07:53:30;;;;;;;13.82;3.47;;;;;;;;;;5020113;28;20041;-82
2022/03/18 07:55:56;;;;;;;12.20;2.80;;;;;;;;;;5004571;28;20555;-83
2022/03/18 07:58:21;;;;;;;19.30;3.58;;;;;;;;;;5001326;28;20048;-83
2022/03/18 08:00:46;;;;;;;14.10;2.95;;;;;;;;;;5003524;28;20038;-83
2022/03/18 08:03:15;;;;;;;14.95;3.10;;;;;;;;;;4998824;28;20042;-83
2022/03/18 08:05:40;;;;;;;18.50;2.97;;;;;;;;;;5002597;28;20040;-82
2022/03/18 08:08:06;;;;;;;12.00;3.35;;;;;;;;;;4991760;28;20026;-82
2022/03/18 08:10:31;;;;;;;14.32;3.30;;;;;;;;;;5020038;28;20469;-83
2022/03/18 08:12:59;;;;;;;16.30;3.55;;;;;;;;;;5000792;28;20042;-84
2022/03/18 08:15:27;;;;;;;12.18;2.90;;;;;;;;;;5015170;28;20057;-83
2022/03/18 08:17:53;;;;;;;15.60;3.47;;;;;;;;;;5014693;28;20041;-82
2022/03/18 08:20:19;;;;;;;13.43;3.08;;;;;;;;;;5016577;28;20083;-82
2022/03/18 08:22:45;;;;;;;17.95;3.25;;;;;;;;;;5011708;28;20612;-82
2022/03/18 08:25:10;;;;;;;21.70;3.60;;;;;;;;;;5018637;28;20274;-82
2022/03/18 08:27:36;;;;;;;20.30;3.58;;;;;;;;;;5006726;28;20500;-82
2022/03/18 08:30:04;;;;;;;14.10;3.40;;;;;;;;;;5015781;28;20045;-82
2022/03/18 08:32:30;;;;;;;15.68;3.38;;;;;;;;;;5004757;28;20167;-82
2022/03/18 08:34:56;;;;;;;19.55;4.05;;;;;;;;;;5021896;28;20029;-83
2022/03/18 08:40:27;;;;;;;12.80;2.80;;;;;;;;;;5018929;28;20317;-83
2022/03/18 08:42:53;;;;;;;16.00;3.60;;;;;;;;;;4980392;28;20936;-83
2022/03/18 08:45:19;;;;;;;16.45;3.65;;;;;;;;;;4961011;28;20073;-83
2022/03/18 08:47:45;;;;;;;14.00;3.03;;;;;;;;;;4953841;28;20490;-84
2022/03/18 08:50:11;;;;;;;18.98;3.10;;;;;;;;;;4961695;28;20081;-84
2022/03/18 08:52:36;;;;;;;16.05;3.05;;;;;;;;;;4981036;28;20387;-84
2022/03/18 08:55:02;;;;;;;13.35;3.20;;;;;;;;;;4957500;28;20042;-82
2022/03/18 08:57:28;;;;;;;13.07;3.17;;;;;;;;;;4941115;28;20042;-82
2022/03/18 08:59:55;;;;;;;27.02;3.70;;;;;;;;;;4950072;28;20692;-82
2022/03/18 09:02:21;;;;;;;18.27;3.58;;;;;;;;;;4950404;28;20511;-84
2022/03/18 09:04:48;;;;;;;14.05;3.15;;;;;;;;;;4986669;28;20050;-83
2022/03/18 09:07:14;;;;;;;15.18;4.05;;;;;;;;;;4957025;28;20141;-82
2022/03/18 09:09:42;;;;;;;14.82;3.60;;;;;;;;;;4943732;28;20135;-82
2022/03/18 09:12:08;;;;;;;19.88;4.15;;;;;;;;;;4970337;28;20121;-83
2022/03/18 09:14:33;;;;;;;16.20;3.63;;;;;;;;;;4943120;28;20137;-84
2022/03/18 09:16:59;;;;;;;16.50;4.00;;;;;;;;;;4943389;28;20043;-82
2022/03/18 09:19:24;;;;;;;14.82;3.58;;;;;;;;;;4982684;28;20053;-82
2022/03/18 09:21:50;;;;;;;13.43;3.65;;;;;;;;;;4999076;28;20085;-83
2022/03/18 09:24:15;;;;;;;15.95;3.75;;;;;;;;;;5019406;28;20401;-82
2022/03/18 09:26:41;;;;;;;12.90;3.83;;;;;;;;;;5006771;28;20384;-83
2022/03/18 09:29:06;;;;;;;12.38;3.72;;;;;;;;;;5015312;28;20044;-82
2022/03/18 09:31:32;;;;;;;15.25;4.03;;;;;;;;;;5018317;28;20489;-83
2022/03/18 09:33:58;;;;;;;14.75;3.85;;;;;;;;;;5011707;28;20046;-83
2022/03/18 09:36:23;;;;;;;14.88;3.25;;;;;;;;;;5005315;28;20072;-83
2022/03/18 09:38:50;;;;;;;14.93;3.55;;;;;;;;;;4993633;28;20045;-83
2022/03/18 09:41:16;;;;;;;15.02;3.83;;;;;;;;;;4993967;28;20034;-83
2022/03/18 09:43:42;;;;;;;15.70;3.85;;;;;;;;;;5006894;28;20559;-83
2022/03/18 09:46:10;;;;;;;12.00;3.97;;;;;;;;;;4991837;28;20050;-83
2022/03/18 09:48:36;;;;;;;12.88;3.72;;;;;;;;;;5003917;28;20120;-84
2022/03/18 09:51:02;;;;;;;14.18;3.55;;;;;;;;;;5006909;28;20045;-83
2022/03/18 09:53:27;;;;;;;12.73;4.32;;;;;;;;;;4998573;28;20034;-83
2022/03/18 09:55:53;;;;;;;15.50;4.93;;;;;;;;;;5020278;28;20125;-83
2022/03/18 09:58:19;;;;;;;12.73;4.53;;;;;;;;;;5022042;28;20048;-86
2022/03/18 10:00:50;;;;;;;12.80;5.07;;;;;;;;;;4995647;28;20104;-83
2022/03/18 10:03:16;;;;;;;15.65;4.80;;;;;;;;;;5033055;28;20500;-82
2022/03/18 10:05:46;;;;;;;17.05;6.13;;;;;;;;;;5016678;28;20038;-82
2022/03/18 10:08:11;;;;;;;15.60;5.30;;;;;;;;;;5017600;28;20045;-82
2022/03/18 10:10:44;;;;;;;14.75;5.90;;;;;;;;;;5021640;28;20041;-83
2022/03/18 10:13:10;;;;;;;15.32;4.93;;;;;;;;;;5027613;28;20107;-84
2022/03/18 10:15:36;;;;;;;14.90;4.80;;;;;;;;;;4998136;28;20073;-83
2022/03/18 10:18:02;;;;;;;15.18;5.32;;;;;;;;;;5010626;28;20128;-83
2022/03/18 10:20:32;;;;;;;18.13;7.18;;;;;;;;;;4997202;28;20052;-83
2022/03/18 10:23:04;;;;;;;15.80;5.18;;;;;;;;;;5012739;28;20089;-83
2022/03/18 10:25:37;;;;;;;13.82;5.18;;;;;;;;;;5004837;28;20106;-83
2022/03/18 10:28:04;;;;;;;14.57;5.38;;;;;;;;;;5006134;28;20049;-85
2022/03/18 10:30:31;;;;;;;19.75;5.60;;;;;;;;;;5005989;28;20026;-83
2022/03/18 10:32:56;;;;;;;18.67;5.60;;;;;;;;;;5001085;28;20037;-82
2022/03/18 10:38:35;;;;;;;16.58;5.45;;;;;;;;;;5014451;28;20095;-82
2022/03/18 10:41:07;;;;;;;16.75;5.32;;;;;;;;;;5003719;28;20107;-83
2022/03/18 10:43:52;;;;;;;15.43;5.13;;;;;;;;;;4999619;28;20036;-83
2022/03/18 10:46:18;;;;;;;14.95;4.57;;;;;;;;;;4989922;28;20042;-84
2022/03/18 10:49:01;;;;;;;13.88;4.80;;;;;;;;;;5013339;28;20470;-83
2022/03/18 10:51:27;;;;;;;12.55;5.03;;;;;;;;;;5006803;28;20038;-83
2022/03/18 10:53:56;;;;;;;11.60;4.45;;;;;;;;;;4981517;28;20069;-84
2022/03/18 10:56:21;;;;;;;12.70;4.35;;;;;;;;;;5012551;28;20824;-84
2022/03/18 10:58:46;;;;;;;13.20;5.20;;;;;;;;;;5017414;28;20088;-83
2022/03/18 11:01:13;;;;;;;15.13;4.38;;;;;;;;;;5002432;28;20037;-83
2022/03/18 11:03:38;;;;;;;12.77;4.22;;;;;;;;;;5006567;28;20046;-83
2022/03/18 11:06:04;;;;;;;9.38;4.03;;;;;;;;;;4996918;28;20053;-83
2022/03/18 11:08:37;;;;;;;10.18;4.25;;;;;;;;;;4988064;28;20045;-83
2022/03/18 11:11:07;;;;;;;11.40;4.38;;;;;;;;;;5019579;28;20091;-83
2022/03/18 11:13:36;;;;;;;14.38;5.18;;;;;;;;;;4999791;28;20042;-83
2022/03/18 11:16:02;;;;;;;12.70;4.35;;;;;;;;;;5001783;28;20046;-82
2022/03/18 11:18:29;;;;;;;10.45;4.10;;;;;;;;;;5007363;28;20553;-83
2022/03/18 11:20:56;;;;;;;12.82;4.65;;;;;;;;;;5005109;28;20083;-82
2022/03/18 11:23:24;;;;;;;;;;;;;;;;;;5032771;28;20045;-82
2022/03/18 11:25:53;;;;;;;9.73;4.18;;;;;;;;;;5008763;28;19921;-82
2022/03/18 11:28:20;;;;;;;11.82;4.00;;;;;;;;;;5011011;28;20136;-82
2022/03/18 11:30:47;;;;;;;;;;;;;;;;;;5002485;28;20042;-82
2022/03/18 11:33:15;;;;;;;11.13;3.70;;;;;;;;;;5015267;28;19924;-82
2022/03/18 11:35:52;;;;;;;10.77;3.85;;;;;;;;;;5004742;28;20049;-82
2022/03/18 11:38:23;;;;;;;11.48;3.45;;;;;;;;;;5005355;28;20113;-82
2022/03/18 11:40:59;;;;;;;8.38;2.85;;;;;;;;;;4989672;28;20445;-82
2022/03/18 11:43:35;;;;;;;8.98;2.90;;;;;;;;;;5000123;28;20148;-84
2022/03/18 11:46:12;;;;;;;7.55;2.95;;;;;;;;;;5012344;28;20053;-83
2022/03/18 11:48:41;;;;;;;10.02;3.10;;;;;;;;;;5018234;28;20410;-83
2022/03/18 11:51:37;;;;;;;10.27;2.75;;;;;;;;;;5003203;28;20041;-81
2022/03/18 11:54:05;;;;;;;10.10;2.90;;;;;;;;;;4992077;28;20508;-84
2022/03/18 11:56:48;;;;;;;8.73;2.95;;;;;;;;;;4984161;28;20042;-90
2022/03/18 11:59:25;;;;;;;8.57;3.00;;;;;;;;;;4991075;28;20030;-82
2022/03/18 12:02:12;;;;;;;7.63;2.60;;;;;;;;;;4998097;28;20594;-81
2022/03/18 12:04:50;;;;;;;10.85;2.80;;;;;;;;;;4995832;28;20080;-81
2022/03/18 12:07:19;;;;;;;9.85;2.65;;;;;;;;;;5020500;28;20089;-81
2022/03/18 12:10:02;;;;;;;8.18;2.63;;;;;;;;;;4986301;28;20042;-81
2022/03/18 12:12:27;;;;;;;7.90;2.25;;;;;;;;;;5019842;28;20040;-81
2022/03/18 12:14:59;;;;;;;10.77;3.00;;;;;;;;;;5015835;28;20034;-81
2022/03/18 12:17:24;;;;;;;11.55;2.90;;;;;;;;;;5008656;28;20846;-82
2022/03/18 12:19:58;;;;;;;7.65;2.63;;;;;;;;;;4976980;28;20496;-82
2022/03/18 12:22:24;;;;;;;9.35;2.40;;;;;;;;;;5004066;28;20038;-80
2022/03/18 12:24:52;;;;;;;14.25;4.85;;;;;;;;;;4986385;28;20046;-80
2022/03/18 12:27:18;;;;;;;10.07;3.05;;;;;;;;;;4983732;28;20033;-81
2022/03/18 12:29:44;;;;;;;9.73;3.03;;;;;;;;;;5012069;28;20052;-82
2022/03/18 12:32:09;;;;;;;9.52;2.58;;;;;;;;;;5017202;28;20037;-81
2022/03/18 12:34:36;;;;;;;9.40;2.50;;;;;;;;;;5013189;28;20172;-81
2022/03/18 12:37:05;;;;;;;10.65;2.65;;;;;;;;;;4999805;28;20038;-80
2022/03/18 12:39:33;;;;;;;8.80;2.33;;;;;;;;;;4996140;28;20073;-80
2022/03/18 12:42:11;;;;;;;10.68;2.20;;;;;;;;;;5000954;28;20044;-81
2022/03/18 12:44:36;;;;;;;9.40;2.40;;;;;;;;;;4998095;28;20054;-81
2022/03/18 12:47:05;;;;;;;9.00;2.47;;;;;;;;;;5018520;28;20049;-81
2022/03/18 12:49:39;;;;;;;9.48;2.17;;;;;;;;;;5001766;28;20046;-81
2022/03/18 12:52:09;;;;;;;7.82;2.10;;;;;;;;;;5006589;28;20675;-81
2022/03/18 12:54:35;;;;;;;7.60;2.22;;;;;;;;;;5018980;28;20091;-80
2022/03/18 12:57:02;;;;;;;10.82;2.22;;;;;;;;;;5000334;28;20053;-81
2022/03/18 12:59:27;;;;;;;8.17;2.10;;;;;;;;;;5017770;28;20062;-80
2022/03/18 13:01:56;;;;;;;7.85;1.98;;;;;;;;;;5005179;28;20134;-80
2022/03/18 13:04:23;;;;;;;7.00;1.92;;;;;;;;;;5009608;28;20416;-80
2022/03/18 13:06:53;;;;;;;8.18;1.90;;;;;;;;;;5014520;28;20467;-81
2022/03/18 13:09:18;;;;;;;8.10;1.90;;;;;;;;;;5021199;28;20038;-81
2022/03/18 13:11:44;;;;;;;12.00;2.30;;;;;;;;;;5025000;28;20040;-80
2022/03/18 13:14:10;;;;;;;9.35;2.00;;;;;;;;;;5009307;28;20033;-80
2022/03/18 13:16:40;;;;;;;9.38;2.15;;;;;;;;;;5017580;28;20626;-83
2022/03/18 13:19:07;;;;;;;9.82;2.00;;;;;;;;;;4992014;28;20120;-80
2022/03/18 13:21:43;;;;;;;12.27;2.22;;;;;;;;;;5020937;28;20382;-80
2022/03/18 13:24:08;;;;;;;7.70;1.90;;;;;;;;;;4999496;28;20037;-81
2022/03/18 13:26:34;;;;;;;11.65;2.17;;;;;;;;;;5000796;28;20104;-80
2022/03/18 13:29:00;;;;;;;8.10;1.70;;;;;;;;;;5005965;28;20137;-81
2022/03/18 13:34:09;;;;;;;7.10;1.60;;;;;;;;;;5012473;28;20084;-82
2022/03/18 13:36:38;;;;;;;8.43;1.83;;;;;;;;;;4999839;28;20053;-83
2022/03/18 13:39:21;;;;;;;7.25;1.42;;;;;;;;;;5016408;28;20039;-82
2022/03/18 13:41:50;;;;;;;9.43;1.67;;;;;;;;;;5032158;28;20069;-82
2022/03/18 13:44:19;;;;;;;7.82;1.67;;;;;;;;;;5025441;28;20123;-83
2022/03/18 13:46:57;;;;;;;8.98;1.33;;;;;;;;;;5016415;28;20442;-82
2022/03/18 13:49:23;;;;;;;5.93;1.40;;;;;;;;;;5009099;28;20056;-83
2022/03/18 13:51:50;;;;;;;7.05;1.60;;;;;;;;;;5016991;28;20393;-82
2022/03/18 13:54:17;;;;;;;7.67;1.47;;;;;;;;;;5020092;28;20444;-81
2022/03/18 13:56:58;;;;;;;6.43;1.30;;;;;;;;;;5012141;28;20048;-81
2022/03/18 13:59:25;;;;;;;6.90;1.70;;;;;;;;;;5022268;28;20526;-82
2022/03/18 14:02:01;;;;;;;6.67;1.50;;;;;;;;;;5019877;28;20029;-82
2022/03/18 14:04:39;;;;;;;8.13;1.60;;;;;;;;;;5003977;28;20268;-81
2022/03/18 14:07:13;;;;;;;5.75;1.67;;;;;;;;;;5007113;28;20065;-82
2022/03/18 14:09:55;;;;;;;7.07;1.70;;;;;;;;;;5003585;28;20157;-83
2022/03/18 14:12:20;;;;;;;7.40;1.58;;;;;;;;;;5008086;28;20033;-82
2022/03/18 14:14:46;;;;;;;6.07;1.80;;;;;;;;;;5006617;28;20546;-82
2022/03/18 14:17:18;;;;;;;11.02;2.40;;;;;;;;;;5008797;28;20064;-83
2022/03/18 14:19:56;;;;;;;9.35;2.40;;;;;;;;;;5000081;28;20068;-83
2022/03/18 14:22:37;;;;;;;15.23;3.10;;;;;;;;;;5000509;28;20037;-82
2022/03/18 14:25:08;;;;;;;7.80;1.60;;;;;;;;;;5014863;28;20535;-86
2022/03/18 14:27:37;;;;;;;7.35;1.40;;;;;;;;;;5031981;28;20404;-85
2022/03/18 14:30:13;;;;;;;4.50;1.20;;;;;;;;;;5008770;28;20497;-84
2022/03/18 14:32:41;;;;;;;6.22;1.48;;;;;;;;;;5025613;28;20041;-84
2022/03/18 14:35:06;;;;;;;7.82;1.48;;;;;;;;;;5014206;28;20096;-84
2022/03/18 14:37:32;;;;;;;8.80;1.80;;;;;;;;;;5029210;28;20501;-85
2022/03/18 14:39:58;;;;;;;5.32;1.20;;;;;;;;;;5025681;28;20038;-85
2022/03/18 14:42:26;;;;;;;6.60;1.60;;;;;;;;;;5015638;28;20127;-81
2022/03/18 14:44:53;;;;;;;8.07;1.48;;;;;;;;;;4991637;28;20048;-81
2022/03/18 14:47:18;;;;;;;5.78;1.30;;;;;;;;;;5012833;28;20036;-80
2022/03/18 14:49:44;;;;;;;7.53;1.35;;;;;;;;;;5024273;28;20041;-81
2022/03/18 14:52:09;;;;;;;5.03;1.10;;;;;;;;;;5010423;28;20033;-82
2022/03/18 14:57:19;;;;;;;7.25;1.52;;;;;;;;;;5021360;28;20099;-82
2022/03/18 14:59:48;;;;;;;5.88;1.38;;;;;;;;;;5016523;28;20065;-82
2022/03/18 15:02:16;;;;;;;5.82;1.30;;;;;;;;;;5002569;28;20063;-81
2022/03/18 15:04:42;;;;;;;5.22;1.30;;;;;;;;;;5007891;28;20044;-81
2022/03/18 15:07:07;;;;;;;6.70;1.42;;;;;;;;;;5003765;28;20037;-81
2022/03/18 15:09:33;;;;;;;6.53;1.50;;;;;;;;;;5020535;28;20400;-82